Time;durP1;ratioP1;P1;durP2;ratioP2;P2;SDS_P1;SDS_P2;PMS_P1;PMS_P2;Temp;Humidity;BMP_temperature;BMP_pressure;BME280_temperature;BME280_humidity;BME280_pressure;Samples;Min_cycle;Max_cycle;Signal;HPM_P1;HPM_P2
2022/04/12 00:00:40;;;;;;;4.28;2.30;;;;;;;10.01;55.94;101125.50;5052309;28;20104;-33
2022/04/12 00:03:06;;;;;;;4.18;2.92;;;;;;;9.97;55.53;101125.13;5052245;28;20063;-34
2022/04/12 00:05:37;;;;;;;3.03;2.20;;;;;;;9.94;55.37;101120.16;5052342;28;20079;-34
2022/04/12 00:08:03;;;;;;;4.72;3.25;;;;;;;9.88;56.40;101109.41;5052746;28;20358;-34
2022/04/12 00:10:29;;;;;;;4.05;2.80;;;;;;;9.85;55.58;101094.44;5056284;28;20063;-34
2022/04/12 00:12:56;;;;;;;4.43;2.90;;;;;;;9.77;55.84;101089.34;5055601;28;20036;-34
2022/04/12 00:15:22;;;;;;;4.25;2.80;;;;;;;9.58;56.02;101052.50;5055001;28;20048;-34
2022/04/12 00:20:32;;;;;;;4.07;2.88;;;;;;;9.78;57.04;101099.91;5056062;28;20122;-34
2022/04/12 00:22:58;;;;;;;4.63;2.67;;;;;;;9.74;56.77;101097.88;5055942;28;20453;-34
2022/04/12 00:25:25;;;;;;;7.53;3.05;;;;;;;9.65;57.13;101088.38;5055916;28;20033;-33
2022/04/12 00:27:52;;;;;;;3.92;2.78;;;;;;;9.47;56.78;101081.88;5055579;28;20025;-33
2022/04/12 00:30:21;;;;;;;4.38;2.67;;;;;;;9.49;57.84;101095.97;5055718;28;20021;-33
2022/04/12 00:32:50;;;;;;;3.78;2.60;;;;;;;9.46;57.85;101091.00;5055963;28;20421;-33
2022/04/12 00:35:16;;;;;;;3.47;2.58;;;;;;;9.51;57.53;101093.84;5055668;28;20033;-34
2022/04/12 00:37:41;;;;;;;3.40;2.70;;;;;;;9.43;57.39;101075.25;5055305;28;20025;-34
2022/04/12 00:40:07;;;;;;;4.80;2.57;;;;;;;9.39;58.27;101067.81;5055703;28;20496;-34
2022/04/12 00:42:33;;;;;;;3.92;3.00;;;;;;;9.40;58.28;101075.66;5055225;28;20040;-33
2022/04/12 00:44:58;;;;;;;3.63;2.40;;;;;;;9.49;57.97;101093.25;5055891;28;20037;-34
2022/04/12 00:47:24;;;;;;;3.03;2.47;;;;;;;9.47;57.34;101089.97;5055273;28;20025;-34
2022/04/12 00:49:49;;;;;;;5.85;3.25;;;;;;;9.47;57.45;101086.44;5055087;28;20146;-33
2022/04/12 00:52:16;;;;;;;5.03;2.83;;;;;;;9.44;56.92;101086.88;5055554;28;20303;-33
2022/04/12 00:54:42;;;;;;;3.50;2.28;;;;;;;9.37;57.78;101086.06;5055142;28;20055;-34
2022/04/12 00:57:09;;;;;;;2.50;2.10;;;;;;;9.37;57.80;101089.63;5054962;28;20057;-33
2022/04/12 00:59:34;;;;;;;;;;;;;;;9.43;57.20;101088.75;5055705;28;20381;-34
2022/04/12 01:02:03;;;;;;;4.07;2.90;;;;;;;9.33;58.00;101096.50;5055115;28;20000;-33
2022/04/12 01:04:29;;;;;;;3.75;2.60;;;;;;;9.13;57.74;101076.88;5055208;28;20091;-34
2022/04/12 01:06:54;;;;;;;4.88;2.45;;;;;;;9.29;58.39;101096.09;5055002;28;20449;-33
2022/04/12 01:09:21;;;;;;;2.83;2.20;;;;;;;9.17;58.23;101089.69;5054414;28;20374;-34
2022/04/12 01:11:48;;;;;;;3.55;2.60;;;;;;;9.26;58.84;101099.22;5055525;28;20049;-34
2022/04/12 01:14:15;;;;;;;2.55;2.35;;;;;;;9.23;58.01;101086.16;5054923;28;20040;-34
2022/04/12 01:16:40;;;;;;;3.38;2.22;;;;;;;9.24;58.28;101097.78;5055098;28;20418;-34
2022/04/12 01:19:06;;;;;;;3.28;2.33;;;;;;;9.26;58.35;101090.28;5054639;28;20056;-34
2022/04/12 01:21:38;;;;;;;4.60;2.40;;;;;;;9.24;58.74;101087.00;5054096;28;20354;-36
2022/04/12 01:24:05;;;;;;;3.63;2.10;;;;;;;9.22;59.26;101086.34;5054798;28;20542;-34
2022/04/12 01:26:32;;;;;;;3.30;2.20;;;;;;;9.23;58.27;101088.88;5054669;28;20030;-34
2022/04/12 01:28:57;;;;;;;3.03;2.13;;;;;;;9.19;58.36;101095.72;5053930;28;20029;-33
2022/04/12 01:31:26;;;;;;;2.23;1.77;;;;;;;9.16;58.27;101092.63;5055179;28;20040;-33
2022/04/12 01:33:53;;;;;;;3.25;1.95;;;;;;;9.16;58.79;101079.13;5054499;28;20026;-33
2022/04/12 01:36:18;;;;;;;4.13;2.30;;;;;;;8.98;58.70;101071.78;5054222;28;20040;-33
2022/04/12 01:38:44;;;;;;;3.50;2.17;;;;;;;8.99;58.89;101063.47;5054473;28;20040;-33
2022/04/12 01:41:09;;;;;;;3.13;2.03;;;;;;;9.03;59.23;101075.47;5054713;28;20037;-33
2022/04/12 01:43:35;;;;;;;3.57;2.73;;;;;;;8.99;59.47;101082.34;5054040;28;20124;-33
2022/04/12 01:46:00;;;;;;;3.53;2.43;;;;;;;9.01;59.12;101076.72;5054213;28;20036;-33
2022/04/12 01:48:26;;;;;;;3.87;2.20;;;;;;;8.98;59.59;101072.59;5053629;28;20040;-34
2022/04/12 01:50:51;;;;;;;2.90;2.10;;;;;;;8.94;60.42;101075.94;5053760;28;20813;-33
2022/04/12 01:53:16;;;;;;;6.75;2.72;;;;;;;8.98;59.37;101079.88;5054129;28;20036;-33
2022/04/12 01:55:42;;;;;;;5.03;2.30;;;;;;;8.81;59.93;101060.63;5054166;28;20041;-34
2022/04/12 01:58:07;;;;;;;2.97;2.47;;;;;;;8.85;60.55;101067.25;5053742;28;20079;-33
2022/04/12 02:00:35;;;;;;;3.43;2.67;;;;;;;8.68;60.09;101028.31;5053896;28;20029;-33
2022/04/12 02:03:00;;;;;;;4.32;2.33;;;;;;;8.87;59.97;101057.06;5053383;28;20025;-33
2022/04/12 02:05:25;;;;;;;5.43;2.33;;;;;;;8.89;60.02;101060.41;5053676;28;20359;-33
2022/04/12 02:07:51;;;;;;;3.57;2.03;;;;;;;8.84;60.20;101059.38;5054079;28;20029;-33
2022/04/12 02:10:19;;;;;;;3.93;2.50;;;;;;;8.73;60.83;101036.59;5053532;28;20028;-33
2022/04/12 02:12:45;;;;;;;3.65;2.28;;;;;;;8.75;60.67;101066.88;5053719;28;20063;-33
2022/04/12 02:15:10;;;;;;;2.47;1.97;;;;;;;8.58;61.03;101041.44;5053315;28;20401;-33
2022/04/12 02:17:35;;;;;;;2.60;2.20;;;;;;;8.74;60.84;101076.84;5053408;28;20465;-33
2022/04/12 02:20:01;;;;;;;4.37;2.37;;;;;;;8.70;60.72;101072.09;5053392;28;20055;-33
2022/04/12 02:22:26;;;;;;;5.07;2.77;;;;;;;8.64;60.72;101056.78;5053091;28;20032;-33
2022/04/12 02:24:51;;;;;;;2.83;2.00;;;;;;;8.75;60.56;101072.28;5053553;28;20025;-33
2022/04/12 02:27:17;;;;;;;3.43;2.20;;;;;;;8.67;60.73;101054.47;5053339;28;20064;-33
2022/04/12 02:29:42;;;;;;;2.67;2.20;;;;;;;8.67;61.18;101067.13;5053235;28;20060;-33
2022/04/12 02:32:08;;;;;;;5.13;2.10;;;;;;;8.47;60.97;101045.63;5052197;28;20021;-33
2022/04/12 02:34:33;;;;;;;5.40;2.20;;;;;;;8.67;61.42;101070.63;5053293;28;20033;-33
2022/04/12 02:36:58;;;;;;;3.03;2.42;;;;;;;8.66;61.44;101070.84;5053144;28;20029;-33
2022/04/12 02:39:24;;;;;;;2.80;2.33;;;;;;;8.66;61.45;101060.91;5053138;28;20424;-33
2022/04/12 02:41:50;;;;;;;4.25;2.47;;;;;;;8.63;61.68;101057.78;5053292;28;20021;-33
2022/04/12 02:44:16;;;;;;;7.45;2.40;;;;;;;8.52;62.31;101057.41;5053238;28;20078;-33
2022/04/12 02:46:41;;;;;;;6.55;2.63;;;;;;;8.55;62.51;101064.25;5053063;28;20029;-33
2022/04/12 02:49:07;;;;;;;3.50;2.57;;;;;;;8.49;62.10;101055.16;5053173;28;20351;-33
2022/04/12 02:51:33;;;;;;;3.05;2.10;;;;;;;8.51;61.59;101055.75;5053033;28;20024;-33
2022/04/12 02:53:58;;;;;;;3.80;2.50;;;;;;;8.37;62.23;101037.97;5052416;28;20053;-34
2022/04/12 02:56:23;;;;;;;4.33;2.60;;;;;;;8.48;62.20;101045.41;5052934;28;20445;-34
2022/04/12 02:58:49;;;;;;;4.00;2.60;;;;;;;8.44;62.41;101037.94;5052950;28;20059;-33
2022/04/12 03:01:14;;;;;;;3.57;2.60;;;;;;;8.46;62.00;101042.09;5052624;28;20362;-34
2022/04/12 03:03:40;;;;;;;4.00;2.17;;;;;;;8.39;62.43;101030.50;5053427;28;20078;-34
2022/04/12 03:06:05;;;;;;;4.93;2.93;;;;;;;8.26;63.45;101017.06;5052471;28;20037;-33
2022/04/12 03:08:31;;;;;;;5.53;2.83;;;;;;;8.33;62.39;101031.31;5052853;28;20032;-33
2022/04/12 03:10:56;;;;;;;3.10;2.50;;;;;;;8.31;63.18;101033.41;5052770;28;20107;-33
2022/04/12 03:13:22;;;;;;;5.20;2.47;;;;;;;8.26;63.51;101023.25;5052395;28;20029;-33
2022/04/12 03:15:47;;;;;;;5.83;3.07;;;;;;;8.15;63.62;101012.28;5052629;28;20075;-33
2022/04/12 03:18:12;;;;;;;4.10;2.63;;;;;;;8.15;63.29;101023.91;5052689;28;20040;-33
2022/04/12 03:20:38;;;;;;;4.23;2.53;;;;;;;8.18;64.42;101017.28;5052901;28;20028;-33
2022/04/12 03:23:03;;;;;;;4.70;2.60;;;;;;;8.11;63.70;101017.28;5052632;28;20094;-33
2022/04/12 03:25:29;;;;;;;3.50;2.50;;;;;;;8.07;63.89;101012.53;5052888;28;20339;-33
2022/04/12 03:27:54;;;;;;;4.50;2.93;;;;;;;8.07;65.05;101007.16;5052629;28;20025;-33
2022/04/12 03:30:19;;;;;;;3.13;2.83;;;;;;;7.99;64.65;100994.72;5052631;28;20377;-33
2022/04/12 03:32:45;;;;;;;4.00;2.80;;;;;;;7.98;64.82;100993.91;5052657;28;20067;-33
2022/04/12 03:35:10;;;;;;;4.00;2.43;;;;;;;7.96;64.33;100995.16;5052141;28;20040;-33
2022/04/12 03:37:36;;;;;;;3.10;2.60;;;;;;;8.02;64.41;101015.84;5052791;28;20039;-34
2022/04/12 03:40:02;;;;;;;4.85;3.05;;;;;;;7.97;64.99;101005.72;5052551;28;20369;-33
2022/04/12 03:42:27;;;;;;;;;;;;;;;8.06;64.04;101013.59;5052928;28;20351;-33
2022/04/12 03:44:53;;;;;;;3.67;2.60;;;;;;;7.86;64.98;100995.59;5055507;28;19955;-33
2022/04/12 03:47:18;;;;;;;3.90;2.73;;;;;;;7.92;64.53;100996.63;5056317;28;20025;-34
2022/04/12 03:49:43;;;;;;;3.87;2.80;;;;;;;8.02;65.83;101023.13;5056241;28;20104;-33
2022/04/12 03:52:09;;;;;;;4.53;2.93;;;;;;;7.95;64.68;100998.88;5055876;28;20377;-33
2022/04/12 03:54:35;;;;;;;3.40;2.45;;;;;;;8.03;65.61;101014.00;5056746;28;20073;-33
2022/04/12 03:57:00;;;;;;;3.95;2.83;;;;;;;7.95;65.89;101005.09;5056238;28;20466;-33
2022/04/12 03:59:26;;;;;;;4.77;3.17;;;;;;;7.92;65.35;100997.44;5056061;28;20032;-33
2022/04/12 04:01:51;;;;;;;4.07;3.23;;;;;;;7.82;65.21;100972.00;5055821;28;20029;-33
2022/04/12 04:04:17;;;;;;;6.07;3.03;;;;;;;7.90;65.74;100987.91;5056079;28;20025;-33
2022/04/12 04:06:42;;;;;;;6.53;3.53;;;;;;;7.88;66.08;100984.59;5056284;28;20063;-33
2022/04/12 04:09:07;;;;;;;3.17;2.67;;;;;;;7.86;66.82;100984.81;5055848;28;20479;-33
2022/04/12 04:11:33;;;;;;;5.67;3.20;;;;;;;7.91;66.02;100989.59;5055129;28;20037;-33
2022/04/12 04:14:01;;;;;;;4.27;3.07;;;;;;;7.85;67.46;100982.31;5056400;28;20056;-33
2022/04/12 04:16:27;;;;;;;4.60;3.08;;;;;;;7.86;67.22;100979.44;5056387;28;20048;-33
2022/04/12 04:18:52;;;;;;;5.37;3.50;;;;;;;7.93;65.94;100993.69;5054470;28;20044;-33
2022/04/12 04:21:17;;;;;;;4.30;2.73;;;;;;;7.94;66.03;100991.84;5055722;28;20032;-33
2022/04/12 04:23:43;;;;;;;5.87;3.20;;;;;;;7.88;67.07;100988.13;5055594;28;20025;-33
2022/04/12 04:26:08;;;;;;;5.33;3.20;;;;;;;7.97;67.01;101000.31;5055406;28;20077;-33
2022/04/12 04:28:34;;;;;;;6.10;3.30;;;;;;;7.96;67.34;100987.09;5055506;28;20064;-33
2022/04/12 04:30:59;;;;;;;8.40;4.30;;;;;;;7.95;67.23;100990.78;5055287;28;20075;-34
2022/04/12 04:33:25;;;;;;;4.82;3.20;;;;;;;7.96;67.06;100996.00;5055482;28;20025;-33
2022/04/12 04:35:51;;;;;;;6.55;3.00;;;;;;;7.97;66.60;101008.41;5056020;28;20127;-33
2022/04/12 04:38:16;;;;;;;6.82;3.75;;;;;;;7.93;67.74;100999.09;5055102;28;20108;-33
2022/04/12 04:40:42;;;;;;;6.90;3.17;;;;;;;7.97;67.65;101003.03;5055722;28;20063;-33
2022/04/12 04:43:08;;;;;;;6.65;3.63;;;;;;;7.99;66.38;100998.25;5055537;28;20025;-33
2022/04/12 04:45:35;;;;;;;5.63;3.53;;;;;;;8.00;66.90;100989.16;5055185;28;20067;-33
2022/04/12 04:48:02;;;;;;;4.78;3.47;;;;;;;7.83;67.91;100969.06;5055618;28;20139;-33
2022/04/12 04:50:31;;;;;;;7.63;3.47;;;;;;;7.96;66.33;101004.06;5054797;28;20414;-33
2022/04/12 04:52:57;;;;;;;5.13;3.38;;;;;;;7.90;67.06;100994.09;5054748;28;20104;-33
2022/04/12 04:55:23;;;;;;;5.03;3.47;;;;;;;7.96;67.25;101024.78;5054646;28;20137;-33
2022/04/12 04:57:53;;;;;;;6.72;3.67;;;;;;;7.89;67.76;101015.88;5053564;28;20428;-33
2022/04/12 05:00:19;;;;;;;5.18;3.50;;;;;;;7.93;68.61;101034.09;5055415;28;20123;-33
2022/04/12 05:02:45;;;;;;;6.15;3.50;;;;;;;7.96;68.22;101030.16;5055232;28;20361;-33
2022/04/12 05:05:11;;;;;;;4.93;3.38;;;;;;;7.92;67.91;101016.28;5054945;28;20036;-33
2022/04/12 05:07:41;;;;;;;5.07;3.00;;;;;;;8.00;67.40;101037.63;5054623;28;20024;-33
2022/04/12 05:10:07;;;;;;;4.68;3.20;;;;;;;8.05;67.37;101045.03;5055182;28;20388;-33
2022/04/12 05:12:32;;;;;;;;;;;;;;;8.12;67.35;101045.06;5054897;28;20029;-33
2022/04/12 05:14:57;;;;;;;4.50;3.13;;;;;;;8.08;67.36;101030.34;5054756;28;19916;-33
2022/04/12 05:17:27;;;;;;;4.90;3.37;;;;;;;8.04;67.46;101015.63;5054421;28;20128;-33
2022/04/12 05:19:53;;;;;;;6.60;3.88;;;;;;;8.05;67.96;101026.19;5054837;28;20037;-33
2022/04/12 05:22:19;;;;;;;4.53;3.50;;;;;;;8.03;68.47;101005.91;5054716;28;20366;-33
2022/04/12 05:24:45;;;;;;;5.32;3.15;;;;;;;8.14;68.40;101018.72;5054565;28;20125;-34
2022/04/12 05:27:11;;;;;;;6.97;3.83;;;;;;;8.18;67.96;101022.66;5054292;28;20033;-33
2022/04/12 05:29:37;;;;;;;8.30;3.83;;;;;;;8.03;67.68;100993.28;5054146;28;20037;-33
2022/04/12 05:32:02;;;;;;;10.57;4.65;;;;;;;8.21;68.06;101019.56;5053914;28;20052;-33
2022/04/12 05:34:28;;;;;;;6.13;3.78;;;;;;;8.22;68.96;101013.13;5054639;28;20033;-33
2022/04/12 05:36:53;;;;;;;6.23;4.00;;;;;;;8.31;67.83;101011.03;5054174;28;20508;-33
2022/04/12 05:39:18;;;;;;;7.40;4.40;;;;;;;8.34;68.40;101014.09;5054230;28;20029;-33
2022/04/12 05:41:44;;;;;;;6.23;3.80;;;;;;;8.11;67.75;100993.06;5053913;28;20127;-33
2022/04/12 05:44:09;;;;;;;5.60;4.07;;;;;;;8.26;68.16;101009.78;5054029;28;20028;-33
2022/04/12 05:46:34;;;;;;;5.23;3.77;;;;;;;8.28;68.77;101009.56;5054249;28;20060;-33
2022/04/12 05:48:59;;;;;;;4.97;3.83;;;;;;;8.17;68.06;100997.59;5054100;28;20112;-33
2022/04/12 05:51:25;;;;;;;7.47;3.70;;;;;;;8.26;68.54;101017.06;5054098;28;20032;-33
2022/04/12 05:53:50;;;;;;;6.53;3.80;;;;;;;8.18;67.64;101007.31;5052264;28;20461;-33
2022/04/12 05:56:16;;;;;;;7.40;3.93;;;;;;;8.19;67.43;101013.53;5054161;28;20500;-33
2022/04/12 05:58:42;;;;;;;10.07;4.38;;;;;;;8.29;68.31;101029.25;5053881;28;20362;-33
2022/04/12 06:01:07;;;;;;;8.30;3.80;;;;;;;8.28;68.86;101031.13;5054585;28;20047;-33
2022/04/12 06:03:32;;;;;;;8.07;4.40;;;;;;;8.27;68.32;101026.78;5053866;28;20040;-33
2022/04/12 06:05:58;;;;;;;6.67;4.40;;;;;;;8.26;68.97;101015.19;5054157;28;20346;-33
2022/04/12 06:08:23;;;;;;;7.30;4.53;;;;;;;8.43;67.96;101026.34;5053376;28;20082;-33
2022/04/12 06:10:48;;;;;;;8.03;4.50;;;;;;;8.60;68.62;101028.59;5053868;28;20032;-33
2022/04/12 06:13:14;;;;;;;13.67;5.53;;;;;;;8.59;67.91;101014.28;5053180;28;20037;-33
2022/04/12 06:15:40;;;;;;;11.25;5.25;;;;;;;8.71;68.36;101030.59;5052833;28;20029;-33
2022/04/12 06:18:06;;;;;;;7.75;4.90;;;;;;;8.69;68.38;101019.22;5053032;28;20025;-33
2022/04/12 06:20:32;;;;;;;28.27;6.57;;;;;;;8.77;67.44;101032.44;5053334;28;20063;-33
2022/04/12 06:22:57;;;;;;;15.20;6.00;;;;;;;8.80;68.13;101021.22;5053314;28;20193;-33
2022/04/12 06:25:23;;;;;;;13.00;4.50;;;;;;;8.94;67.14;101030.91;5052884;28;20283;-34
2022/04/12 06:27:53;;;;;;;6.47;4.57;;;;;;;9.06;66.73;101033.75;5053266;28;20028;-33
2022/04/12 06:30:21;;;;;;;6.90;4.40;;;;;;;9.15;66.68;101026.22;5051549;28;20114;-33
2022/04/12 06:32:46;;;;;;;7.68;4.53;;;;;;;9.23;67.09;101017.88;5053148;28;20025;-34
2022/04/12 06:35:13;;;;;;;6.05;4.22;;;;;;;9.28;65.24;101020.75;5053952;28;20421;-34
2022/04/12 06:37:42;;;;;;;;;;;;;;;9.40;66.32;101021.69;5053522;28;20060;-33
2022/04/12 06:40:09;;;;;;;6.82;4.03;;;;;;;9.39;65.85;101024.63;5053538;28;19983;-33
2022/04/12 06:42:35;;;;;;;7.03;4.10;;;;;;;9.45;66.37;101021.03;5052937;28;20090;-34
2022/04/12 06:45:01;;;;;;;10.43;5.50;;;;;;;9.53;66.52;101016.19;5053145;28;20472;-33
2022/04/12 06:47:26;;;;;;;8.27;4.30;;;;;;;9.52;65.11;101014.56;5052762;28;20041;-34
2022/04/12 06:49:52;;;;;;;6.72;4.82;;;;;;;9.59;64.95;101016.38;5053742;28;20033;-34
2022/04/12 06:52:22;;;;;;;6.75;4.38;;;;;;;9.71;65.42;101006.47;5052947;28;20482;-32
2022/04/12 06:54:48;;;;;;;8.75;3.95;;;;;;;9.80;65.24;101002.47;5053349;28;20126;-33
2022/04/12 06:57:14;;;;;;;8.98;4.22;;;;;;;10.01;64.57;101010.16;5053469;28;20028;-32
2022/04/12 06:59:40;;;;;;;4.90;4.03;;;;;;;10.10;64.88;101007.97;5053020;28;20025;-34
2022/04/12 07:02:06;;;;;;;6.18;3.88;;;;;;;10.24;64.49;101008.69;5052458;28;20082;-33
2022/04/12 07:04:32;;;;;;;4.40;4.00;;;;;;;10.33;63.56;101010.06;5052608;28;20040;-33
2022/04/12 07:06:57;;;;;;;4.43;3.92;;;;;;;10.42;63.05;101018.69;5053014;28;20327;-34
2022/04/12 07:09:24;;;;;;;4.90;4.00;;;;;;;10.46;63.98;101000.97;5052569;28;20029;-33
2022/04/12 07:11:53;;;;;;;5.85;3.67;;;;;;;10.69;63.80;101014.63;5052428;28;20036;-34
2022/04/12 07:14:19;;;;;;;7.65;4.20;;;;;;;10.71;62.63;100996.28;5052672;28;20024;-33
2022/04/12 07:16:44;;;;;;;5.07;3.85;;;;;;;10.90;62.66;101012.50;5052638;28;20101;-34
2022/04/12 07:19:10;;;;;;;7.78;4.57;;;;;;;10.95;61.65;101008.03;5054259;28;20029;-33
2022/04/12 07:21:35;;;;;;;5.85;3.95;;;;;;;11.08;61.80;101010.56;5057334;28;20029;-33
2022/04/12 07:24:03;;;;;;;7.97;4.65;;;;;;;11.20;61.22;101015.19;5056973;28;20025;-33
2022/04/12 07:26:29;;;;;;;6.90;3.90;;;;;;;11.28;61.37;101021.09;5056817;28;20077;-33
2022/04/12 07:28:54;;;;;;;6.60;3.97;;;;;;;11.40;62.83;101013.00;5057088;28;20423;-33
2022/04/12 07:31:19;;;;;;;5.33;4.23;;;;;;;11.41;61.50;101011.09;5056932;28;20028;-33
2022/04/12 07:33:45;;;;;;;6.87;4.20;;;;;;;11.45;61.24;100996.88;5056118;28;20028;-33
2022/04/12 07:36:10;;;;;;;6.27;4.13;;;;;;;11.66;60.42;101013.63;5056341;28;20251;-33
2022/04/12 07:38:36;;;;;;;8.20;4.68;;;;;;;11.78;60.54;101007.16;5056480;28;20441;-33
2022/04/12 07:41:01;;;;;;;5.93;4.00;;;;;;;11.89;59.60;101008.25;5056739;28;20132;-33
2022/04/12 07:43:26;;;;;;;4.37;3.53;;;;;;;11.95;59.96;101001.88;5056363;28;20275;-33
2022/04/12 07:45:52;;;;;;;5.53;4.27;;;;;;;12.03;59.96;100979.03;5056223;28;20365;-33
2022/04/12 07:48:17;;;;;;;8.40;4.40;;;;;;;12.23;60.08;100994.91;5056240;28;20325;-33
2022/04/12 07:50:43;;;;;;;5.78;4.38;;;;;;;12.44;59.66;100994.25;5056661;28;20207;-33
2022/04/12 07:53:08;;;;;;;6.18;3.83;;;;;;;12.52;59.57;100996.63;5056206;28;20029;-34
2022/04/12 07:55:34;;;;;;;5.25;3.33;;;;;;;12.57;59.67;100988.56;5055881;28;20048;-33
2022/04/12 07:57:59;;;;;;;4.82;3.58;;;;;;;12.65;58.16;100986.56;5056375;28;20035;-34
2022/04/12 08:00:24;;;;;;;7.90;4.47;;;;;;;12.81;57.93;100994.75;5055929;28;20128;-34
2022/04/12 08:02:50;;;;;;;6.77;3.40;;;;;;;12.95;58.74;100989.84;5056117;28;20306;-37
2022/04/12 08:05:16;;;;;;;4.75;3.15;;;;;;;13.07;58.40;100985.19;5055667;28;20383;-33
2022/04/12 08:07:47;;;;;;;7.05;3.67;;;;;;;13.15;56.74;100990.22;5054905;28;20040;-34
2022/04/12 08:10:16;;;;;;;3.92;3.20;;;;;;;13.22;58.53;101000.13;5055798;28;20139;-34
2022/04/12 08:12:43;;;;;;;5.88;3.80;;;;;;;13.26;57.11;100998.56;5055794;28;20440;-34
2022/04/12 08:15:14;;;;;;;4.55;3.00;;;;;;;13.28;57.38;100999.19;5055767;28;20460;-33
2022/04/12 08:17:39;;;;;;;4.88;3.10;;;;;;;13.39;58.09;100993.66;5055740;28;20104;-33
2022/04/12 08:20:06;;;;;;;4.55;3.28;;;;;;;13.43;57.47;100998.59;5056145;28;20056;-33
2022/04/12 08:22:32;;;;;;;5.00;3.00;;;;;;;13.46;56.77;100979.91;5055549;28;20021;-33
2022/04/12 08:24:58;;;;;;;4.28;3.17;;;;;;;13.65;57.89;101000.31;5055296;28;20037;-33
2022/04/12 08:27:24;;;;;;;5.63;3.20;;;;;;;13.82;58.45;101004.94;5055499;28;20484;-33
2022/04/12 08:29:50;;;;;;;5.50;2.80;;;;;;;13.95;55.38;100998.31;5054607;28;20029;-33
2022/04/12 08:32:16;;;;;;;4.40;2.60;;;;;;;14.02;54.22;100990.84;5054894;28;20075;-33
2022/04/12 08:34:42;;;;;;;4.32;2.08;;;;;;;14.17;54.32;101002.72;5055586;28;20097;-33
2022/04/12 08:37:07;;;;;;;5.22;2.33;;;;;;;14.25;54.52;101001.50;5056129;28;20408;-33
2022/04/12 08:39:33;;;;;;;6.07;2.20;;;;;;;14.31;54.08;101002.38;5055293;28;20063;-33
2022/04/12 08:42:00;;;;;;;4.50;2.05;;;;;;;14.35;53.61;100988.03;5055047;28;20512;-34
2022/04/12 08:44:26;;;;;;;5.35;2.25;;;;;;;14.54;54.58;101002.19;5055132;28;20017;-34
2022/04/12 08:46:55;;;;;;;3.85;2.28;;;;;;;14.58;54.93;100981.50;5055457;28;20032;-34
2022/04/12 08:49:22;;;;;;;3.90;2.33;;;;;;;14.78;53.85;100985.56;5054953;28;20430;-33
2022/04/12 08:51:48;;;;;;;6.47;2.17;;;;;;;14.80;53.09;100972.53;5055536;28;20050;-33
2022/04/12 08:54:14;;;;;;;;;;;;;;;14.91;54.32;100968.81;5055650;28;20182;-33
2022/04/12 08:56:40;;;;;;;5.85;2.15;;;;;;;14.92;52.29;100962.28;5054925;28;19916;-33
2022/04/12 08:59:05;;;;;;;3.20;2.03;;;;;;;14.94;51.46;100962.88;5054814;28;20041;-33
2022/04/12 09:01:31;;;;;;;2.70;2.22;;;;;;;15.08;52.25;100963.25;5054675;28;20033;-33
2022/04/12 09:03:56;;;;;;;2.75;1.92;;;;;;;15.10;52.80;100951.03;5054863;28;20024;-33
2022/04/12 09:06:21;;;;;;;5.17;2.20;;;;;;;15.23;51.79;100952.53;5054526;28;20033;-33
2022/04/12 09:08:47;;;;;;;;;;;;;;;15.38;52.46;100960.00;5055083;28;20025;-33
2022/04/12 09:11:15;;;;;;;3.60;1.83;;;;;;;15.45;52.04;100964.13;5055226;28;19917;-33
2022/04/12 09:13:57;;;;;;;2.92;1.77;;;;;;;15.58;52.49;100962.88;5054529;28;20032;-33
2022/04/12 09:16:23;;;;;;;3.38;2.10;;;;;;;15.66;53.09;100958.88;5055365;28;20036;-33
2022/04/12 09:18:48;;;;;;;;;;;;;;;15.80;52.55;100965.50;5054749;28;20456;-33
2022/04/12 09:21:20;;;;;;;3.63;2.17;;;;;;;15.88;50.69;100956.03;5054603;28;20273;-34
2022/04/12 09:23:51;;;;;;;2.97;1.80;;;;;;;15.95;51.90;100951.13;5054685;28;20033;-34
2022/04/12 09:26:29;;;;;;;5.57;2.00;;;;;;;16.03;51.25;100947.91;5054902;28;20033;-34
2022/04/12 09:28:57;;;;;;;3.05;1.60;;;;;;;16.00;50.44;100923.91;5054705;28;20040;-34
2022/04/12 09:31:23;;;;;;;4.72;1.98;;;;;;;16.06;50.36;100906.50;5054728;28;20111;-33
2022/04/12 09:33:48;;;;;;;;;;;;;;;16.36;50.94;100929.53;5054628;28;20120;-33
2022/04/12 09:36:15;;;;;;;3.53;2.08;;;;;;;16.46;49.42;100926.84;5053931;28;19909;-33
2022/04/12 09:38:42;;;;;;;4.60;1.90;;;;;;;16.57;50.35;100920.31;5053794;28;20044;-33
2022/04/12 09:41:19;;;;;;;3.95;2.22;;;;;;;16.65;50.81;100925.25;5054418;28;20344;-40
2022/04/12 09:44:05;;;;;;;5.75;2.33;;;;;;;16.72;50.05;100923.09;5054571;28;20043;-33
2022/04/12 09:46:31;;;;;;;5.45;2.08;;;;;;;16.74;48.44;100925.59;5054298;28;20424;-33
2022/04/12 09:48:56;;;;;;;;;;;;;;;16.90;50.54;100929.16;5054328;28;20025;-33
2022/04/12 09:51:23;;;;;;;4.17;1.90;;;;;;;16.86;48.67;100928.03;5053666;28;19917;-34
2022/04/12 09:53:49;;;;;;;3.47;2.00;;;;;;;16.95;48.77;100929.16;5053654;28;20315;-35
2022/04/12 09:56:15;;;;;;;;;;;;;;;17.09;49.32;100927.53;5054236;28;20112;-35
2022/04/12 09:58:42;;;;;;;5.53;2.05;;;;;;;17.08;49.03;100925.91;5054314;28;19913;-35
2022/04/12 10:01:09;;;;;;;3.45;2.00;;;;;;;17.24;49.92;100922.06;5054262;28;20111;-34
2022/04/12 10:03:36;;;;;;;3.00;2.15;;;;;;;17.11;47.74;100911.69;5054003;28;20032;-35
2022/04/12 10:06:02;;;;;;;4.25;2.25;;;;;;;17.34;49.46;100931.38;5053434;28;20496;-35
2022/04/12 10:08:33;;;;;;;3.20;1.70;;;;;;;17.37;48.88;100933.53;5053248;28;20036;-35
2022/04/12 10:10:59;;;;;;;3.92;1.60;;;;;;;17.57;48.96;100925.34;5053710;28;20385;-34
2022/04/12 10:13:26;;;;;;;2.20;1.58;;;;;;;17.65;47.30;100919.28;5053715;28;20036;-35
2022/04/12 10:15:52;;;;;;;2.70;1.85;;;;;;;17.66;47.14;100914.63;5053360;28;20025;-34
2022/04/12 10:18:19;;;;;;;;;;;;;;;17.78;48.18;100915.19;5052559;28;20035;-34
2022/04/12 10:20:44;;;;;;;4.90;2.15;;;;;;;17.54;48.79;100897.72;5053167;28;19909;-35
2022/04/12 10:23:10;;;;;;;;;;;;;;;17.63;48.50;100887.84;5054073;28;20049;-35
2022/04/12 10:25:35;;;;;;;4.40;2.05;;;;;;;17.65;49.03;100883.75;5053580;28;19912;-35
2022/04/12 10:28:03;;;;;;;;;;;;;;;17.84;49.73;100878.53;5052288;28;20135;-34
2022/04/12 10:30:30;;;;;;;4.13;2.08;;;;;;;17.67;48.19;100876.09;5053379;28;19919;-35
2022/04/12 10:33:06;;;;;;;6.45;2.08;;;;;;;17.70;47.53;100877.44;5053916;28;20032;-35
2022/04/12 10:35:46;;;;;;;5.85;2.38;;;;;;;17.66;47.65;100876.34;5053442;28;20477;-35
2022/04/12 10:38:13;;;;;;;5.40;2.13;;;;;;;17.58;46.93;100890.59;5052825;28;20080;-35
2022/04/12 10:40:46;;;;;;;3.65;1.90;;;;;;;17.54;48.88;100879.41;5053352;28;20111;-35
2022/04/12 10:43:21;;;;;;;4.90;1.90;;;;;;;17.64;48.42;100871.16;5053206;28;20025;-35
2022/04/12 10:45:49;;;;;;;3.50;1.70;;;;;;;17.73;48.72;100883.22;5053345;28;20025;-35
2022/04/12 10:48:22;;;;;;;5.97;2.30;;;;;;;17.67;47.73;100880.75;5052952;28;20036;-35
2022/04/12 10:50:51;;;;;;;3.97;2.00;;;;;;;17.59;47.79;100882.13;5053611;28;20063;-34
2022/04/12 10:53:36;;;;;;;4.07;2.10;;;;;;;17.58;48.22;100874.19;5052411;28;20032;-34
2022/04/12 10:56:12;;;;;;;5.40;2.00;;;;;;;17.57;49.23;100851.50;5052949;28;20074;-35
2022/04/12 10:58:38;;;;;;;5.53;1.83;;;;;;;17.90;48.79;100865.66;5053710;28;20091;-35
2022/04/12 11:01:08;;;;;;;6.13;2.47;;;;;;;18.07;48.11;100857.09;5053647;28;20037;-35
2022/04/12 11:03:52;;;;;;;3.38;2.20;;;;;;;18.15;47.79;100848.28;5052609;28;20448;-35
2022/04/12 11:06:23;;;;;;;4.32;1.83;;;;;;;18.09;46.72;100852.97;5053013;28;20098;-35
2022/04/12 11:09:10;;;;;;;3.70;1.70;;;;;;;17.99;46.55;100847.56;5052423;28;20028;-35
2022/04/12 11:11:40;;;;;;;;;;;;;;;18.08;47.08;100851.34;5052895;28;20081;-35
2022/04/12 11:14:32;;;;;;;2.53;1.67;;;;;;;18.10;47.72;100868.28;5053055;28;19962;-35
2022/04/12 11:17:08;;;;;;;2.50;1.45;;;;;;;18.13;47.68;100873.22;5053277;28;20052;-35
2022/04/12 11:19:41;;;;;;;5.78;1.90;;;;;;;18.13;46.53;100875.94;5052839;28;20450;-35
2022/04/12 11:22:10;;;;;;;4.63;2.17;;;;;;;18.48;47.96;100871.38;5053133;28;20078;-34
2022/04/12 11:24:36;;;;;;;3.70;1.88;;;;;;;18.70;47.14;100874.56;5053034;28;20053;-35
2022/04/12 11:27:01;;;;;;;;;;;;;;;18.85;46.34;100868.16;5053496;28;20079;-35
2022/04/12 11:29:28;;;;;;;5.47;1.60;;;;;;;18.63;45.17;100845.81;5052174;28;20289;-35
2022/04/12 11:31:55;;;;;;;3.50;1.73;;;;;;;18.55;44.96;100843.72;5052537;28;20155;-35
2022/04/12 11:34:22;;;;;;;4.55;1.77;;;;;;;18.41;45.20;100843.53;5051918;28;20028;-35